Time,TemperatureF,DewpointF,PressureIn,WindDirection,WindDirectionDegrees,WindSpeedMPH,WindSpeedGustMPH,Humidity,HourlyPrecipIn,Conditions,Clouds,dailyrainin,SoftwareType,DateUTC
2013-05-26 00:14:00,57.1,51.0,30.14,ENE,76,0.0,-999.0,81,-99.99,,,0.00,weatherlink.com 1.10,2013-05-26 05:14:00,
2013-05-26 00:29:00,57.2,51.0,30.14,ENE,76,0.0,-999.0,81,-99.99,,,0.00,weatherlink.com 1.10,2013-05-26 05:29:00,
2013-05-26 00:44:00,57.1,52.0,30.14,ENE,76,0.0,-999.0,83,-99.99,,,0.00,weatherlink.com 1.10,2013-05-26 05:44:00,
2013-05-26 00:59:00,56.3,51.0,30.14,ENE,76,0.0,-999.0,83,-99.99,,,0.00,weatherlink.com 1.10,2013-05-26 05:59:00,
2013-05-26 01:14:00,56.2,51.0,30.14,ENE,76,0.0,-999.0,82,-99.99,,,0.00,weatherlink.com 1.10,2013-05-26 06:14:00,
2013-05-26 01:29:00,56.4,52.0,30.14,ENE,76,0.0,-999.0,84,-99.99,,,0.00,weatherlink.com 1.10,2013-05-26 06:29:00,
2013-05-26 01:44:00,56.3,52.0,30.13,ENE,76,0.0,-999.0,85,-99.99,,,0.00,weatherlink.com 1.10,2013-05-26 06:44:00,
2013-05-26 02:00:00,56.3,53.0,30.13,ENE,76,0.0,-999.0,87,-99.99,,,0.00,weatherlink.com 1.10,2013-05-26 07:00:00,
2013-05-26 02:14:00,56.4,52.0,30.13,ENE,76,0.0,-999.0,86,-99.99,,,0.00,weatherlink.com 1.10,2013-05-26 07:14:00,
2013-05-26 02:29:00,55.8,52.0,30.13,ENE,76,0.0,-999.0,86,-99.99,,,0.00,weatherlink.com 1.10,2013-05-26 07:29:00,
2013-05-26 02:44:00,55.8,51.0,30.13,ENE,76,0.0,-999.0,84,-99.99,,,0.00,weatherlink.com 1.10,2013-05-26 07:44:00,
2013-05-26 02:59:00,55.9,52.0,30.14,ENE,76,0.0,-999.0,85,-99.99,,,0.00,weatherlink.com 1.10,2013-05-26 07:59:00,
2013-05-26 03:14:00,55.8,52.0,30.14,ENE,76,0.0,-999.0,87,-99.99,,,0.00,weatherlink.com 1.10,2013-05-26 08:14:00,
2013-05-26 03:29:00,55.9,53.0,30.15,ENE,76,0.0,-999.0,89,-99.99,,,0.00,weatherlink.com 1.10,2013-05-26 08:29:00,
2013-05-26 03:44:00,55.5,53.0,30.16,ENE,76,0.0,-999.0,90,-99.99,,,0.00,weatherlink.com 1.10,2013-05-26 08:44:00,
2013-05-26 03:59:00,55.3,53.0,30.16,ENE,76,0.0,-999.0,91,-99.99,,,0.00,weatherlink.com 1.10,2013-05-26 08:59:00,
2013-05-26 04:14:00,55.2,53.0,30.16,ENE,76,0.0,-999.0,91,-99.99,,,0.00,weatherlink.com 1.10,2013-05-26 09:14:00,
2013-05-26 04:29:00,55.2,53.0,30.17,ENE,76,0.0,-999.0,92,-99.99,,,0.00,weatherlink.com 1.10,2013-05-26 09:29:00,
2013-05-26 04:45:00,55.3,53.0,30.17,ENE,76,0.0,-999.0,92,-99.99,,,0.00,weatherlink.com 1.10,2013-05-26 09:45:00,
2013-05-26 04:59:00,55.3,53.0,30.18,ENE,76,0.0,-999.0,92,-99.99,,,0.00,weatherlink.com 1.10,2013-05-26 09:59:00,
2013-05-26 05:14:00,55.2,53.0,30.18,ENE,76,0.0,-999.0,92,-99.99,,,0.00,weatherlink.com 1.10,2013-05-26 10:14:00,
2013-05-26 05:29:00,55.1,53.0,30.19,ENE,76,0.0,-999.0,93,-99.99,,,0.00,weatherlink.com 1.10,2013-05-26 10:29:00,
2013-05-26 05:44:00,55.1,53.0,30.19,ENE,76,0.0,-999.0,93,-99.99,,,0.00,weatherlink.com 1.10,2013-05-26 10:44:00,
2013-05-26 05:59:00,56.3,55.0,30.20,NE,49,0.0,-999.0,94,-99.99,,,0.00,weatherlink.com 1.10,2013-05-26 10:59:00,
2013-05-26 06:14:00,57.1,55.0,30.21,NE,49,0.0,-999.0,94,-99.99,,,0.00,weatherlink.com 1.10,2013-05-26 11:14:00,
2013-05-26 06:29:00,57.7,55.0,30.21,NE,37,0.0,-999.0,92,-99.99,,,0.00,weatherlink.com 1.10,2013-05-26 11:29:00,
2013-05-26 06:44:00,59.2,56.0,30.21,NNE,25,0.0,-999.0,89,-99.99,,,0.00,weatherlink.com 1.10,2013-05-26 11:44:00,
2013-05-26 06:59:00,60.7,56.0,30.20,NNE,25,0.0,-999.0,85,-99.99,,,0.00,weatherlink.com 1.10,2013-05-26 11:59:00,
2013-05-26 07:14:00,62.4,57.0,30.21,NNE,25,0.0,-999.0,81,-99.99,,,0.00,weatherlink.com 1.10,2013-05-26 12:14:00,
2013-05-26 07:30:00,62.5,56.0,30.21,North,11,0.0,-999.0,80,-99.99,,,0.00,weatherlink.com 1.10,2013-05-26 12:30:00,
2013-05-26 07:44:00,63.0,57.0,30.21,NNE,20,0.0,-999.0,81,-99.99,,,0.00,weatherlink.com 1.10,2013-05-26 12:44:00,
2013-05-26 07:59:00,63.7,57.0,30.21,North,11,0.0,-999.0,79,-99.99,,,0.00,weatherlink.com 1.10,2013-05-26 12:59:00,
2013-05-26 08:14:00,64.8,58.0,30.21,NNW,340,5.0,-999.0,78,-99.99,,,0.00,weatherlink.com 1.10,2013-05-26 13:14:00,
2013-05-26 08:29:00,64.8,57.0,30.21,NNW,340,3.0,-999.0,77,-99.99,,,0.00,weatherlink.com 1.10,2013-05-26 13:29:00,
2013-05-26 08:44:00,65.5,58.0,30.21,NNW,339,0.0,-999.0,76,-99.99,,,0.00,weatherlink.com 1.10,2013-05-26 13:44:00,
2013-05-26 08:59:00,66.1,58.0,30.21,NNW,339,0.0,-999.0,76,-99.99,,,0.00,weatherlink.com 1.10,2013-05-26 13:59:00,
2013-05-26 09:14:00,66.9,58.0,30.21,NNW,342,5.0,-999.0,74,-99.99,,,0.00,weatherlink.com 1.10,2013-05-26 14:14:00,
2013-05-26 09:29:00,67.7,59.0,30.20,NNW,337,2.0,-999.0,74,-99.99,,,0.00,weatherlink.com 1.10,2013-05-26 14:29:00,
2013-05-26 09:44:00,68.3,59.0,30.20,NNW,335,5.0,-999.0,73,-99.99,,,0.00,weatherlink.com 1.10,2013-05-26 14:44:00,
2013-05-26 09:59:00,69.1,60.0,30.20,NNW,344,5.0,-999.0,73,-99.99,,,0.00,weatherlink.com 1.10,2013-05-26 14:59:00,
2013-05-26 10:15:00,70.3,60.0,30.20,North,5,0.0,-999.0,70,-99.99,,,0.00,weatherlink.com 1.10,2013-05-26 15:15:00,
2013-05-26 10:29:00,71.9,60.0,30.20,North,355,2.0,-999.0,66,-99.99,,,0.00,weatherlink.com 1.10,2013-05-26 15:29:00,
2013-05-26 10:44:00,73.3,60.0,30.20,NNW,347,2.0,-999.0,63,-99.99,,,0.00,weatherlink.com 1.10,2013-05-26 15:44:00,
2013-05-26 10:59:00,75.0,61.0,30.20,NNW,348,0.0,-999.0,61,-99.99,,,0.00,weatherlink.com 1.10,2013-05-26 15:59:00,
2013-05-26 11:14:00,76.4,60.0,30.20,NNW,346,6.0,-999.0,57,-99.99,,,0.00,weatherlink.com 1.10,2013-05-26 16:14:00,
2013-05-26 11:29:00,76.3,60.0,30.19,North,355,7.0,-999.0,57,-99.99,,,0.00,weatherlink.com 1.10,2013-05-26 16:29:00,
2013-05-26 11:44:00,77.7,60.0,30.19,NNW,334,4.0,-999.0,55,-99.99,,,0.00,weatherlink.com 1.10,2013-05-26 16:44:00,
2013-05-26 11:59:00,77.8,60.0,30.18,NNW,339,3.0,-999.0,54,-99.99,,,0.00,weatherlink.com 1.10,2013-05-26 16:59:00,
2013-05-26 12:14:00,79.0,59.0,30.18,North,355,1.0,-999.0,51,-99.99,,,0.00,weatherlink.com 1.10,2013-05-26 17:14:00,
2013-05-26 12:29:00,80.2,58.0,30.17,NNW,338,1.0,-999.0,46,-99.99,,,0.00,weatherlink.com 1.10,2013-05-26 17:29:00,
2013-05-26 12:44:00,80.7,58.0,30.17,NNE,26,2.0,-999.0,46,-99.99,,,0.00,weatherlink.com 1.10,2013-05-26 17:44:00,
2013-05-26 13:00:00,81.3,57.0,30.17,North,355,5.0,-999.0,44,-99.99,,,0.00,weatherlink.com 1.10,2013-05-26 18:00:00,
2013-05-26 13:14:00,82.0,57.0,30.16,WNW,295,0.0,-999.0,42,-99.99,,,0.00,weatherlink.com 1.10,2013-05-26 18:14:00,
2013-05-26 13:29:00,82.6,54.0,30.15,South,184,0.0,-999.0,38,-99.99,,,0.00,weatherlink.com 1.10,2013-05-26 18:29:00,
2013-05-26 13:44:00,83.4,54.0,30.15,West,259,4.0,-999.0,37,-99.99,,,0.00,weatherlink.com 1.10,2013-05-26 18:44:00,
2013-05-26 13:59:00,84.0,55.0,30.15,WSW,244,7.0,-999.0,37,-99.99,,,0.00,weatherlink.com 1.10,2013-05-26 18:59:00,
2013-05-26 14:14:00,82.8,53.0,30.15,East,89,0.0,-999.0,36,-99.99,,,0.00,weatherlink.com 1.10,2013-05-26 19:14:00,
2013-05-26 14:29:00,84.0,54.0,30.14,ESE,123,2.0,-999.0,36,-99.99,,,0.00,weatherlink.com 1.10,2013-05-26 19:29:00,
2013-05-26 14:44:00,83.8,54.0,30.14,NNW,329,2.0,-999.0,36,-99.99,,,0.00,weatherlink.com 1.10,2013-05-26 19:44:00,
2013-05-26 14:59:00,84.2,55.0,30.13,West,259,0.0,-999.0,37,-99.99,,,0.00,weatherlink.com 1.10,2013-05-26 19:59:00,
2013-05-26 15:14:00,84.7,56.0,30.13,WNW,282,1.0,-999.0,37,-99.99,,,0.00,weatherlink.com 1.10,2013-05-26 20:14:00,
2013-05-26 15:29:00,85.9,53.0,30.12,SW,219,4.0,-999.0,32,-99.99,,,0.00,weatherlink.com 1.10,2013-05-26 20:29:00,
2013-05-26 15:45:00,85.4,53.0,30.11,West,271,0.0,-999.0,33,-99.99,,,0.00,weatherlink.com 1.10,2013-05-26 20:45:00,
2013-05-26 15:59:00,85.2,52.0,30.11,ESE,120,0.0,-999.0,32,-99.99,,,0.00,weatherlink.com 1.10,2013-05-26 20:59:00,
2013-05-26 16:14:00,84.8,52.0,30.11,SW,225,0.0,-999.0,32,-99.99,,,0.00,weatherlink.com 1.10,2013-05-26 21:14:00,
2013-05-26 16:29:00,85.7,52.0,30.11,SSE,153,0.0,-999.0,31,-99.99,,,0.00,weatherlink.com 1.10,2013-05-26 21:29:00,
2013-05-26 16:44:00,85.4,54.0,30.10,SW,230,0.0,-999.0,34,-99.99,,,0.00,weatherlink.com 1.10,2013-05-26 21:44:00,
2013-05-26 16:59:00,86.4,53.0,30.10,West,271,3.0,-999.0,32,-99.99,,,0.00,weatherlink.com 1.10,2013-05-26 21:59:00,
2013-05-26 17:14:00,85.6,53.0,30.10,SSW,198,0.0,-999.0,33,-99.99,,,0.00,weatherlink.com 1.10,2013-05-26 22:14:00,
2013-05-26 17:29:00,85.1,52.0,30.09,SW,225,0.0,-999.0,32,-99.99,,,0.00,weatherlink.com 1.10,2013-05-26 22:29:00,
2013-05-26 17:44:00,84.2,51.0,30.09,South,169,4.0,-999.0,32,-99.99,,,0.00,weatherlink.com 1.10,2013-05-26 22:44:00,
2013-05-26 17:59:00,84.1,52.0,30.09,SSW,210,6.0,-999.0,33,-99.99,,,0.00,weatherlink.com 1.10,2013-05-26 22:59:00,
2013-05-26 18:14:00,84.0,54.0,30.09,SSW,201,0.0,-999.0,36,-99.99,,,0.00,weatherlink.com 1.10,2013-05-26 23:14:00,
2013-05-26 18:30:00,83.5,57.0,30.09,SSW,201,0.0,-999.0,40,-99.99,,,0.00,weatherlink.com 1.10,2013-05-26 23:30:00,
2013-05-26 18:44:00,82.2,58.0,30.09,SSW,201,0.0,-999.0,44,-99.99,,,0.00,weatherlink.com 1.10,2013-05-26 23:44:00,
2013-05-26 18:59:00,80.9,58.0,30.09,SSW,201,0.0,-999.0,46,-99.99,,,0.00,weatherlink.com 1.10,2013-05-26 23:59:00,
2013-05-26 19:14:00,79.1,57.0,30.09,SSW,201,0.0,-999.0,47,-99.99,,,0.00,weatherlink.com 1.10,2013-05-27 00:14:00,
2013-05-26 19:29:00,77.4,56.0,30.09,SSW,201,0.0,-999.0,48,-99.99,,,0.00,weatherlink.com 1.10,2013-05-27 00:29:00,
2013-05-26 19:44:00,76.2,57.0,30.09,SSW,201,0.0,-999.0,51,-99.99,,,0.00,weatherlink.com 1.10,2013-05-27 00:44:00,
2013-05-26 19:59:00,74.4,57.0,30.09,SSW,201,0.0,-999.0,55,-99.99,,,0.00,weatherlink.com 1.10,2013-05-27 00:59:00,
2013-05-26 20:14:00,73.3,58.0,30.09,SSW,201,0.0,-999.0,59,-99.99,,,0.00,weatherlink.com 1.10,2013-05-27 01:14:00,
2013-05-26 20:29:00,71.9,58.0,30.09,SSW,201,0.0,-999.0,62,-99.99,,,0.00,weatherlink.com 1.10,2013-05-27 01:29:00,
2013-05-26 20:44:00,70.9,58.0,30.09,SSW,201,0.0,-999.0,65,-99.99,,,0.00,weatherlink.com 1.10,2013-05-27 01:44:00,
2013-05-26 20:59:00,70.2,58.0,30.10,SSW,199,0.0,-999.0,66,-99.99,,,0.00,weatherlink.com 1.10,2013-05-27 01:59:00,
2013-05-26 21:15:00,69.3,59.0,30.10,SSW,199,0.0,-999.0,69,-99.99,,,0.00,weatherlink.com 1.10,2013-05-27 02:15:00,
2013-05-26 21:29:00,68.7,59.0,30.10,SSW,199,0.0,-999.0,72,-99.99,,,0.00,weatherlink.com 1.10,2013-05-27 02:29:00,
2013-05-26 21:44:00,68.2,59.0,30.11,SSW,199,0.0,-999.0,73,-99.99,,,0.00,weatherlink.com 1.10,2013-05-27 02:44:00,
2013-05-26 21:59:00,67.5,59.0,30.12,SSW,199,0.0,-999.0,75,-99.99,,,0.00,weatherlink.com 1.10,2013-05-27 02:59:00,
2013-05-26 22:14:00,67.0,59.0,30.11,SSW,199,0.0,-999.0,76,-99.99,,,0.00,weatherlink.com 1.10,2013-05-27 03:14:00,
2013-05-26 22:29:00,66.9,61.0,30.11,SSW,199,0.0,-999.0,80,-99.99,,,0.00,weatherlink.com 1.10,2013-05-27 03:29:00,
2013-05-26 22:44:00,66.4,61.0,30.11,SSW,199,0.0,-999.0,82,-99.99,,,0.00,weatherlink.com 1.10,2013-05-27 03:44:00,
2013-05-26 22:59:00,65.8,61.0,30.11,SSW,199,0.0,-999.0,83,-99.99,,,0.00,weatherlink.com 1.10,2013-05-27 03:59:00,
2013-05-26 23:14:00,65.3,61.0,30.11,SSW,199,0.0,-999.0,85,-99.99,,,0.00,weatherlink.com 1.10,2013-05-27 04:14:00,
2013-05-26 23:29:00,65.1,61.0,30.11,SSW,199,0.0,-999.0,85,-99.99,,,0.00,weatherlink.com 1.10,2013-05-27 04:29:00,
2013-05-26 23:44:00,64.6,60.0,30.11,SSW,199,0.0,-999.0,86,-99.99,,,0.00,weatherlink.com 1.10,2013-05-27 04:44:00,